sensor_id;sensor_type;location;lat;lon;timestamp;temperature;humidity
28244;DHT22;15510;52.512;13.300;2022-12-05T00:03:06;4.10;99.90
28244;DHT22;15510;52.512;13.300;2022-12-05T00:05:32;4.10;99.90
28244;DHT22;15510;52.512;13.300;2022-12-05T00:07:58;4.10;99.90
28244;DHT22;15510;52.512;13.300;2022-12-05T00:10:24;4.10;99.90
28244;DHT22;15510;52.512;13.300;2022-12-05T00:20:54;4.10;99.90
28244;DHT22;15510;52.512;13.300;2022-12-05T00:23:48;4.10;99.90
28244;DHT22;15510;52.512;13.300;2022-12-05T00:27:08;4.20;99.90
28244;DHT22;15510;52.512;13.300;2022-12-05T00:29:48;4.20;99.90
28244;DHT22;15510;52.512;13.300;2022-12-05T00:32:15;4.10;99.90
28244;DHT22;15510;52.512;13.300;2022-12-05T00:38:17;4.00;99.90
28244;DHT22;15510;52.512;13.300;2022-12-05T00:41:09;4.00;99.90
28244;DHT22;15510;52.512;13.300;2022-12-05T00:44:02;4.00;99.90
28244;DHT22;15510;52.512;13.300;2022-12-05T00:47:01;4.00;99.90
28244;DHT22;15510;52.512;13.300;2022-12-05T00:50:01;4.00;99.90
28244;DHT22;15510;52.512;13.300;2022-12-05T00:53:16;4.00;99.90
28244;DHT22;15510;52.512;13.300;2022-12-05T00:59:47;4.00;99.90
28244;DHT22;15510;52.512;13.300;2022-12-05T01:02:53;4.00;99.90
28244;DHT22;15510;52.512;13.300;2022-12-05T01:05:28;4.00;99.90
28244;DHT22;15510;52.512;13.300;2022-12-05T01:08:08;4.10;99.90
28244;DHT22;15510;52.512;13.300;2022-12-05T01:10:59;4.00;99.90
28244;DHT22;15510;52.512;13.300;2022-12-05T01:17:43;4.00;99.90
28244;DHT22;15510;52.512;13.300;2022-12-05T01:20:31;4.00;99.90
28244;DHT22;15510;52.512;13.300;2022-12-05T01:23:01;4.00;99.90
28244;DHT22;15510;52.512;13.300;2022-12-05T01:25:27;4.00;99.90
28244;DHT22;15510;52.512;13.300;2022-12-05T01:39:23;4.00;99.90
28244;DHT22;15510;52.512;13.300;2022-12-05T01:45:57;4.00;99.90
28244;DHT22;15510;52.512;13.300;2022-12-05T01:49:15;4.00;99.90
28244;DHT22;15510;52.512;13.300;2022-12-05T01:51:51;4.10;99.90
28244;DHT22;15510;52.512;13.300;2022-12-05T01:54:18;4.10;99.90
28244;DHT22;15510;52.512;13.300;2022-12-05T01:57:04;4.00;99.90
28244;DHT22;15510;52.512;13.300;2022-12-05T02:00:37;4.10;99.90
28244;DHT22;15510;52.512;13.300;2022-12-05T02:03:39;4.10;99.90
28244;DHT22;15510;52.512;13.300;2022-12-05T02:06:35;4.00;99.90
28244;DHT22;15510;52.512;13.300;2022-12-05T02:09:53;4.00;99.90
28244;DHT22;15510;52.512;13.300;2022-12-05T02:12:57;4.00;99.90
28244;DHT22;15510;52.512;13.300;2022-12-05T02:19:48;4.10;99.90
28244;DHT22;15510;52.512;13.300;2022-12-05T02:25:37;4.10;99.90
28244;DHT22;15510;52.512;13.300;2022-12-05T02:29:18;4.10;99.90
28244;DHT22;15510;52.512;13.300;2022-12-05T02:35:59;4.10;99.90
28244;DHT22;15510;52.512;13.300;2022-12-05T02:39:21;4.00;99.90
28244;DHT22;15510;52.512;13.300;2022-12-05T02:45:54;4.00;99.90
28244;DHT22;15510;52.512;13.300;2022-12-05T02:49:39;4.00;99.90
28244;DHT22;15510;52.512;13.300;2022-12-05T02:52:29;4.00;99.90
28244;DHT22;15510;52.512;13.300;2022-12-05T02:55:32;4.00;99.90
28244;DHT22;15510;52.512;13.300;2022-12-05T02:58:25;4.00;99.90
28244;DHT22;15510;52.512;13.300;2022-12-05T03:00:55;4.10;99.90
28244;DHT22;15510;52.512;13.300;2022-12-05T03:03:22;4.10;99.90
28244;DHT22;15510;52.512;13.300;2022-12-05T03:06:16;4.00;99.90
28244;DHT22;15510;52.512;13.300;2022-12-05T03:09:21;4.00;99.90
28244;DHT22;15510;52.512;13.300;2022-12-05T03:15:40;4.00;99.90
28244;DHT22;15510;52.512;13.300;2022-12-05T03:18:49;4.00;99.90
28244;DHT22;15510;52.512;13.300;2022-12-05T03:26:05;4.00;99.90
28244;DHT22;15510;52.512;13.300;2022-12-05T03:28:57;4.00;99.90
28244;DHT22;15510;52.512;13.300;2022-12-05T03:31:43;4.10;99.90
28244;DHT22;15510;52.512;13.300;2022-12-05T03:34:23;4.10;99.90
28244;DHT22;15510;52.512;13.300;2022-12-05T03:36:58;4.10;99.90
28244;DHT22;15510;52.512;13.300;2022-12-05T03:58:06;4.00;99.90
28244;DHT22;15510;52.512;13.300;2022-12-05T04:01:26;4.10;99.90
28244;DHT22;15510;52.512;13.300;2022-12-05T04:04:41;4.00;99.90
28244;DHT22;15510;52.512;13.300;2022-12-05T04:07:27;3.90;99.90
28244;DHT22;15510;52.512;13.300;2022-12-05T04:09:56;4.00;99.90
28244;DHT22;15510;52.512;13.300;2022-12-05T04:20:09;4.00;99.90
28244;DHT22;15510;52.512;13.300;2022-12-05T04:23:19;4.00;99.90
28244;DHT22;15510;52.512;13.300;2022-12-05T04:26:46;4.00;99.90
28244;DHT22;15510;52.512;13.300;2022-12-05T04:37:08;4.00;99.90
28244;DHT22;15510;52.512;13.300;2022-12-05T04:39:57;4.10;99.90
28244;DHT22;15510;52.512;13.300;2022-12-05T04:46:33;4.10;99.90
28244;DHT22;15510;52.512;13.300;2022-12-05T04:50:16;4.10;99.90
28244;DHT22;15510;52.512;13.300;2022-12-05T04:53:11;4.10;99.90
28244;DHT22;15510;52.512;13.300;2022-12-05T04:56:10;4.20;99.90
28244;DHT22;15510;52.512;13.300;2022-12-05T04:58:58;4.10;99.90
28244;DHT22;15510;52.512;13.300;2022-12-05T05:02:09;4.10;99.90
28244;DHT22;15510;52.512;13.300;2022-12-05T05:19:00;4.10;99.90
28244;DHT22;15510;52.512;13.300;2022-12-05T05:22:09;4.10;99.90
28244;DHT22;15510;52.512;13.300;2022-12-05T05:25:23;4.10;99.90
28244;DHT22;15510;52.512;13.300;2022-12-05T05:27:51;4.10;99.90
28244;DHT22;15510;52.512;13.300;2022-12-05T05:30:38;4.10;99.90
28244;DHT22;15510;52.512;13.300;2022-12-05T05:40:01;4.20;99.90
28244;DHT22;15510;52.512;13.300;2022-12-05T05:43:33;4.20;99.90
28244;DHT22;15510;52.512;13.300;2022-12-05T05:46:36;4.10;99.90
28244;DHT22;15510;52.512;13.300;2022-12-05T05:49:31;4.10;99.90
28244;DHT22;15510;52.512;13.300;2022-12-05T05:55:50;4.10;99.90
28244;DHT22;15510;52.512;13.300;2022-12-05T06:05:55;4.20;99.90
28244;DHT22;15510;52.512;13.300;2022-12-05T06:08:55;4.20;99.90
28244;DHT22;15510;52.512;13.300;2022-12-05T06:12:13;4.20;99.90
28244;DHT22;15510;52.512;13.300;2022-12-05T06:15:28;4.20;99.90
28244;DHT22;15510;52.512;13.300;2022-12-05T06:22:08;4.20;99.90
28244;DHT22;15510;52.512;13.300;2022-12-05T06:27:52;4.20;99.90
28244;DHT22;15510;52.512;13.300;2022-12-05T06:30:31;4.20;99.90
28244;DHT22;15510;52.512;13.300;2022-12-05T06:41:19;4.10;99.90
28244;DHT22;15510;52.512;13.300;2022-12-05T06:48:13;4.20;99.90
28244;DHT22;15510;52.512;13.300;2022-12-05T07:02:06;4.20;99.90
28244;DHT22;15510;52.512;13.300;2022-12-05T07:04:34;4.30;99.90
28244;DHT22;15510;52.512;13.300;2022-12-05T07:06:59;4.20;99.90
28244;DHT22;15510;52.512;13.300;2022-12-05T07:09:27;4.20;99.90
28244;DHT22;15510;52.512;13.300;2022-12-05T07:12:17;4.30;99.90
28244;DHT22;15510;52.512;13.300;2022-12-05T07:14:43;4.30;99.90
28244;DHT22;15510;52.512;13.300;2022-12-05T07:17:09;4.30;99.90
28244;DHT22;15510;52.512;13.300;2022-12-05T07:19:35;4.30;99.90
28244;DHT22;15510;52.512;13.300;2022-12-05T07:22:01;4.40;99.90
28244;DHT22;15510;52.512;13.300;2022-12-05T07:24:27;4.40;99.90
28244;DHT22;15510;52.512;13.300;2022-12-05T07:26:53;4.40;99.90
28244;DHT22;15510;52.512;13.300;2022-12-05T07:29:18;4.50;99.90
28244;DHT22;15510;52.512;13.300;2022-12-05T07:31:44;4.40;99.90
28244;DHT22;15510;52.512;13.300;2022-12-05T07:34:10;4.40;99.90
28244;DHT22;15510;52.512;13.300;2022-12-05T07:36:36;4.40;99.90
28244;DHT22;15510;52.512;13.300;2022-12-05T07:39:02;4.30;99.90
28244;DHT22;15510;52.512;13.300;2022-12-05T07:41:30;4.40;99.90
28244;DHT22;15510;52.512;13.300;2022-12-05T07:43:58;4.40;99.90
28244;DHT22;15510;52.512;13.300;2022-12-05T07:46:25;4.40;99.90
28244;DHT22;15510;52.512;13.300;2022-12-05T07:48:52;4.40;99.90
28244;DHT22;15510;52.512;13.300;2022-12-05T07:51:18;4.40;99.90
28244;DHT22;15510;52.512;13.300;2022-12-05T07:53:45;4.50;99.90
28244;DHT22;15510;52.512;13.300;2022-12-05T07:56:13;4.50;99.90
28244;DHT22;15510;52.512;13.300;2022-12-05T07:58:44;4.40;99.90
28244;DHT22;15510;52.512;13.300;2022-12-05T08:01:15;4.40;99.90
28244;DHT22;15510;52.512;13.300;2022-12-05T08:03:41;4.40;99.90
28244;DHT22;15510;52.512;13.300;2022-12-05T08:06:10;4.40;99.90
28244;DHT22;15510;52.512;13.300;2022-12-05T08:08:36;4.40;99.90
28244;DHT22;15510;52.512;13.300;2022-12-05T08:11:11;4.50;99.90
28244;DHT22;15510;52.512;13.300;2022-12-05T08:13:37;4.50;99.90
28244;DHT22;15510;52.512;13.300;2022-12-05T08:16:06;4.60;99.90
28244;DHT22;15510;52.512;13.300;2022-12-05T08:18:32;4.50;99.90
28244;DHT22;15510;52.512;13.300;2022-12-05T08:21:18;4.50;99.90
28244;DHT22;15510;52.512;13.300;2022-12-05T08:23:44;4.60;99.90
28244;DHT22;15510;52.512;13.300;2022-12-05T08:26:22;4.60;99.90
28244;DHT22;15510;52.512;13.300;2022-12-05T08:29:04;4.60;99.90
28244;DHT22;15510;52.512;13.300;2022-12-05T08:31:32;4.60;99.90
28244;DHT22;15510;52.512;13.300;2022-12-05T08:33:59;4.60;99.90
28244;DHT22;15510;52.512;13.300;2022-12-05T08:36:27;4.50;99.90
28244;DHT22;15510;52.512;13.300;2022-12-05T08:38:57;4.50;99.90
28244;DHT22;15510;52.512;13.300;2022-12-05T08:41:24;4.50;99.90
28244;DHT22;15510;52.512;13.300;2022-12-05T08:43:53;4.50;99.90
28244;DHT22;15510;52.512;13.300;2022-12-05T08:46:19;4.50;99.90
28244;DHT22;15510;52.512;13.300;2022-12-05T08:48:45;4.60;99.90
28244;DHT22;15510;52.512;13.300;2022-12-05T08:51:11;4.60;99.90
28244;DHT22;15510;52.512;13.300;2022-12-05T08:53:38;4.60;99.90
28244;DHT22;15510;52.512;13.300;2022-12-05T08:56:06;4.60;99.90
28244;DHT22;15510;52.512;13.300;2022-12-05T08:58:32;4.50;99.90
28244;DHT22;15510;52.512;13.300;2022-12-05T09:01:11;4.50;99.90
28244;DHT22;15510;52.512;13.300;2022-12-05T09:03:38;4.60;99.90
28244;DHT22;15510;52.512;13.300;2022-12-05T09:08:31;4.60;99.90
28244;DHT22;15510;52.512;13.300;2022-12-05T09:10:57;4.70;99.90
28244;DHT22;15510;52.512;13.300;2022-12-05T09:13:23;4.70;99.90
28244;DHT22;15510;52.512;13.300;2022-12-05T09:15:49;4.70;99.90
28244;DHT22;15510;52.512;13.300;2022-12-05T09:18:14;4.60;99.90
28244;DHT22;15510;52.512;13.300;2022-12-05T09:20:40;4.60;99.90
28244;DHT22;15510;52.512;13.300;2022-12-05T09:23:06;4.60;99.90
28244;DHT22;15510;52.512;13.300;2022-12-05T09:25:32;4.70;99.90
28244;DHT22;15510;52.512;13.300;2022-12-05T09:27:58;4.80;99.90
28244;DHT22;15510;52.512;13.300;2022-12-05T09:30:23;4.80;99.90
28244;DHT22;15510;52.512;13.300;2022-12-05T09:32:49;4.80;99.90
28244;DHT22;15510;52.512;13.300;2022-12-05T09:35:15;4.60;99.90
28244;DHT22;15510;52.512;13.300;2022-12-05T09:37:40;4.60;99.90
28244;DHT22;15510;52.512;13.300;2022-12-05T09:40:10;4.60;99.90
28244;DHT22;15510;52.512;13.300;2022-12-05T09:43:04;4.60;99.90
28244;DHT22;15510;52.512;13.300;2022-12-05T09:45:37;4.70;99.90
28244;DHT22;15510;52.512;13.300;2022-12-05T09:48:14;4.60;99.90
28244;DHT22;15510;52.512;13.300;2022-12-05T09:50:44;4.60;99.90
28244;DHT22;15510;52.512;13.300;2022-12-05T09:53:27;4.60;99.90
28244;DHT22;15510;52.512;13.300;2022-12-05T09:56:05;4.60;99.90
28244;DHT22;15510;52.512;13.300;2022-12-05T10:04:26;4.60;99.90
28244;DHT22;15510;52.512;13.300;2022-12-05T10:12:57;4.70;99.90
28244;DHT22;15510;52.512;13.300;2022-12-05T10:16:03;4.70;99.90
28244;DHT22;15510;52.512;13.300;2022-12-05T10:18:57;4.80;99.90
28244;DHT22;15510;52.512;13.300;2022-12-05T10:21:33;4.70;99.90
28244;DHT22;15510;52.512;13.300;2022-12-05T10:24:09;4.70;99.90
28244;DHT22;15510;52.512;13.300;2022-12-05T10:26:48;4.70;99.90
28244;DHT22;15510;52.512;13.300;2022-12-05T10:29:36;4.70;99.90
28244;DHT22;15510;52.512;13.300;2022-12-05T10:32:17;4.70;99.90
28244;DHT22;15510;52.512;13.300;2022-12-05T10:34:44;4.80;99.90
28244;DHT22;15510;52.512;13.300;2022-12-05T10:37:18;4.80;99.90
28244;DHT22;15510;52.512;13.300;2022-12-05T10:39:46;4.80;99.90
28244;DHT22;15510;52.512;13.300;2022-12-05T10:42:22;4.70;99.90
28244;DHT22;15510;52.512;13.300;2022-12-05T10:44:56;4.70;99.90
28244;DHT22;15510;52.512;13.300;2022-12-05T10:47:22;4.70;99.90
28244;DHT22;15510;52.512;13.300;2022-12-05T10:49:48;4.70;99.90
28244;DHT22;15510;52.512;13.300;2022-12-05T10:52:14;4.60;99.90
28244;DHT22;15510;52.512;13.300;2022-12-05T10:54:48;4.60;99.90
28244;DHT22;15510;52.512;13.300;2022-12-05T10:57:27;4.60;99.90
28244;DHT22;15510;52.512;13.300;2022-12-05T10:59:55;4.60;99.90
28244;DHT22;15510;52.512;13.300;2022-12-05T11:02:27;4.70;99.90
28244;DHT22;15510;52.512;13.300;2022-12-05T11:04:54;4.70;99.90
28244;DHT22;15510;52.512;13.300;2022-12-05T11:07:53;4.70;99.90
28244;DHT22;15510;52.512;13.300;2022-12-05T11:12:47;4.70;99.90
28244;DHT22;15510;52.512;13.300;2022-12-05T11:17:44;4.70;99.90
28244;DHT22;15510;52.512;13.300;2022-12-05T11:22:46;4.60;99.90
28244;DHT22;15510;52.512;13.300;2022-12-05T11:25:31;4.60;99.90
28244;DHT22;15510;52.512;13.300;2022-12-05T11:27:59;4.70;99.90
28244;DHT22;15510;52.512;13.300;2022-12-05T11:30:27;4.70;99.90
28244;DHT22;15510;52.512;13.300;2022-12-05T11:33:20;4.80;99.90
28244;DHT22;15510;52.512;13.300;2022-12-05T11:35:47;4.80;99.90
28244;DHT22;15510;52.512;13.300;2022-12-05T11:38:16;4.90;99.90
28244;DHT22;15510;52.512;13.300;2022-12-05T11:46:45;4.90;99.90
28244;DHT22;15510;52.512;13.300;2022-12-05T11:55:20;4.80;99.90
28244;DHT22;15510;52.512;13.300;2022-12-05T11:57:58;4.90;99.90
28244;DHT22;15510;52.512;13.300;2022-12-05T12:11:25;4.90;99.90
28244;DHT22;15510;52.512;13.300;2022-12-05T12:14:28;4.90;99.90
28244;DHT22;15510;52.512;13.300;2022-12-05T12:19:59;5.00;99.90
28244;DHT22;15510;52.512;13.300;2022-12-05T12:22:59;5.00;99.90
28244;DHT22;15510;52.512;13.300;2022-12-05T12:28:35;5.00;99.90
28244;DHT22;15510;52.512;13.300;2022-12-05T12:31:18;4.90;99.90
28244;DHT22;15510;52.512;13.300;2022-12-05T12:34:20;4.90;99.90
28244;DHT22;15510;52.512;13.300;2022-12-05T12:37:21;4.90;99.90
28244;DHT22;15510;52.512;13.300;2022-12-05T12:40:18;4.80;99.90
28244;DHT22;15510;52.512;13.300;2022-12-05T12:50:41;4.80;99.90
28244;DHT22;15510;52.512;13.300;2022-12-05T12:59:18;4.90;99.90
28244;DHT22;15510;52.512;13.300;2022-12-05T13:04:24;4.90;99.90
28244;DHT22;15510;52.512;13.300;2022-12-05T13:07:22;4.90;99.90
28244;DHT22;15510;52.512;13.300;2022-12-05T13:10:01;4.90;99.90
28244;DHT22;15510;52.512;13.300;2022-12-05T13:12:30;4.90;99.90
28244;DHT22;15510;52.512;13.300;2022-12-05T13:15:04;4.90;99.90
28244;DHT22;15510;52.512;13.300;2022-12-05T13:17:32;4.90;99.90
28244;DHT22;15510;52.512;13.300;2022-12-05T13:19:58;4.80;99.90
28244;DHT22;15510;52.512;13.300;2022-12-05T13:22:26;4.80;99.90
28244;DHT22;15510;52.512;13.300;2022-12-05T13:24:53;4.80;99.90
28244;DHT22;15510;52.512;13.300;2022-12-05T13:27:26;4.80;99.90
28244;DHT22;15510;52.512;13.300;2022-12-05T13:32:24;4.80;99.90
28244;DHT22;15510;52.512;13.300;2022-12-05T13:34:51;4.80;99.90
28244;DHT22;15510;52.512;13.300;2022-12-05T13:37:43;4.90;99.90
28244;DHT22;15510;52.512;13.300;2022-12-05T13:40:29;4.90;99.90
28244;DHT22;15510;52.512;13.300;2022-12-05T13:43:17;4.90;99.90
28244;DHT22;15510;52.512;13.300;2022-12-05T13:48:24;5.00;99.90
28244;DHT22;15510;52.512;13.300;2022-12-05T13:51:12;5.00;99.90
28244;DHT22;15510;52.512;13.300;2022-12-05T13:53:47;5.00;99.90
28244;DHT22;15510;52.512;13.300;2022-12-05T13:58:45;5.00;99.90
28244;DHT22;15510;52.512;13.300;2022-12-05T14:03:58;5.10;99.90
28244;DHT22;15510;52.512;13.300;2022-12-05T14:15:23;5.30;99.90
28244;DHT22;15510;52.512;13.300;2022-12-05T14:18:17;5.30;99.90
28244;DHT22;15510;52.512;13.300;2022-12-05T14:23:26;5.20;99.90
28244;DHT22;15510;52.512;13.300;2022-12-05T14:26:20;5.30;99.90
28244;DHT22;15510;52.512;13.300;2022-12-05T14:34:30;5.30;99.90
28244;DHT22;15510;52.512;13.300;2022-12-05T14:39:50;5.30;99.90
28244;DHT22;15510;52.512;13.300;2022-12-05T14:44:51;5.30;99.90
28244;DHT22;15510;52.512;13.300;2022-12-05T14:47:22;5.20;99.90
28244;DHT22;15510;52.512;13.300;2022-12-05T14:52:27;5.20;99.90
28244;DHT22;15510;52.512;13.300;2022-12-05T14:55:02;5.30;99.90
28244;DHT22;15510;52.512;13.300;2022-12-05T14:57:31;5.30;99.90
28244;DHT22;15510;52.512;13.300;2022-12-05T15:00:03;5.30;99.90
28244;DHT22;15510;52.512;13.300;2022-12-05T15:02:33;5.30;99.90
28244;DHT22;15510;52.512;13.300;2022-12-05T15:05:22;5.30;99.90
28244;DHT22;15510;52.512;13.300;2022-12-05T15:07:51;5.30;99.90
28244;DHT22;15510;52.512;13.300;2022-12-05T15:10:32;5.40;99.90
28244;DHT22;15510;52.512;13.300;2022-12-05T15:13:04;5.40;99.90
28244;DHT22;15510;52.512;13.300;2022-12-05T15:18:23;5.30;99.90
28244;DHT22;15510;52.512;13.300;2022-12-05T15:21:17;5.30;99.90
28244;DHT22;15510;52.512;13.300;2022-12-05T15:26:25;5.30;99.90
28244;DHT22;15510;52.512;13.300;2022-12-05T15:31:37;5.20;99.90
28244;DHT22;15510;52.512;13.300;2022-12-05T15:34:10;5.20;99.90
28244;DHT22;15510;52.512;13.300;2022-12-05T15:36:39;5.30;99.90
28244;DHT22;15510;52.512;13.300;2022-12-05T15:39:23;5.30;99.90
28244;DHT22;15510;52.512;13.300;2022-12-05T15:41:51;5.30;99.90
28244;DHT22;15510;52.512;13.300;2022-12-05T15:44:19;5.30;99.90
28244;DHT22;15510;52.512;13.300;2022-12-05T15:46:51;5.30;99.90
28244;DHT22;15510;52.512;13.300;2022-12-05T15:49:25;5.30;99.90
28244;DHT22;15510;52.512;13.300;2022-12-05T15:51:59;5.30;99.90
28244;DHT22;15510;52.512;13.300;2022-12-05T15:54:31;5.20;99.90
28244;DHT22;15510;52.512;13.300;2022-12-05T15:57:06;5.20;99.90
28244;DHT22;15510;52.512;13.300;2022-12-05T15:59:46;5.20;99.90
28244;DHT22;15510;52.512;13.300;2022-12-05T16:02:38;5.20;99.90
28244;DHT22;15510;52.512;13.300;2022-12-05T16:05:19;5.30;99.90
28244;DHT22;15510;52.512;13.300;2022-12-05T16:07:47;5.20;99.90
28244;DHT22;15510;52.512;13.300;2022-12-05T16:10:15;5.30;99.90
28244;DHT22;15510;52.512;13.300;2022-12-05T16:12:41;5.30;99.90
28244;DHT22;15510;52.512;13.300;2022-12-05T16:15:22;5.30;99.90
28244;DHT22;15510;52.512;13.300;2022-12-05T16:17:56;5.40;99.90
28244;DHT22;15510;52.512;13.300;2022-12-05T16:20:24;5.30;99.90
28244;DHT22;15510;52.512;13.300;2022-12-05T16:22:54;5.30;99.90
28244;DHT22;15510;52.512;13.300;2022-12-05T16:25:26;5.30;99.90
28244;DHT22;15510;52.512;13.300;2022-12-05T16:30:29;5.30;99.90
28244;DHT22;15510;52.512;13.300;2022-12-05T16:33:15;5.30;99.90
28244;DHT22;15510;52.512;13.300;2022-12-05T16:35:45;5.40;99.90
28244;DHT22;15510;52.512;13.300;2022-12-05T16:43:26;5.40;99.90
28244;DHT22;15510;52.512;13.300;2022-12-05T16:45:54;5.30;99.90
28244;DHT22;15510;52.512;13.300;2022-12-05T16:48:23;5.30;99.90
28244;DHT22;15510;52.512;13.300;2022-12-05T16:53:34;5.30;99.90
28244;DHT22;15510;52.512;13.300;2022-12-05T16:56:03;5.30;99.90
28244;DHT22;15510;52.512;13.300;2022-12-05T16:58:29;5.40;99.90
28244;DHT22;15510;52.512;13.300;2022-12-05T17:01:01;5.30;99.90
28244;DHT22;15510;52.512;13.300;2022-12-05T17:03:27;5.40;99.90
28244;DHT22;15510;52.512;13.300;2022-12-05T17:05:53;5.40;99.90
28244;DHT22;15510;52.512;13.300;2022-12-05T17:08:20;5.40;99.90
28244;DHT22;15510;52.512;13.300;2022-12-05T17:10:47;5.40;99.90
28244;DHT22;15510;52.512;13.300;2022-12-05T17:13:14;5.40;99.90
28244;DHT22;15510;52.512;13.300;2022-12-05T17:15:41;5.40;99.90
28244;DHT22;15510;52.512;13.300;2022-12-05T17:18:12;5.40;99.90
28244;DHT22;15510;52.512;13.300;2022-12-05T17:20:42;5.50;99.90
28244;DHT22;15510;52.512;13.300;2022-12-05T17:23:14;5.50;99.90
28244;DHT22;15510;52.512;13.300;2022-12-05T17:25:48;5.50;99.90
28244;DHT22;15510;52.512;13.300;2022-12-05T17:28:15;5.50;99.90
28244;DHT22;15510;52.512;13.300;2022-12-05T17:30:41;5.50;99.90
28244;DHT22;15510;52.512;13.300;2022-12-05T17:33:11;5.50;99.90
28244;DHT22;15510;52.512;13.300;2022-12-05T17:35:37;5.50;99.90
28244;DHT22;15510;52.512;13.300;2022-12-05T17:38:04;5.40;99.90
28244;DHT22;15510;52.512;13.300;2022-12-05T17:40:30;5.40;99.90
28244;DHT22;15510;52.512;13.300;2022-12-05T17:42:57;5.40;99.90
28244;DHT22;15510;52.512;13.300;2022-12-05T17:45:23;5.40;99.90
28244;DHT22;15510;52.512;13.300;2022-12-05T17:47:49;5.40;99.90
28244;DHT22;15510;52.512;13.300;2022-12-05T17:50:20;5.40;99.90
28244;DHT22;15510;52.512;13.300;2022-12-05T17:52:48;5.40;99.90
28244;DHT22;15510;52.512;13.300;2022-12-05T17:55:20;5.40;99.90
28244;DHT22;15510;52.512;13.300;2022-12-05T17:57:46;5.40;99.90
28244;DHT22;15510;52.512;13.300;2022-12-05T18:00:15;5.50;99.90
28244;DHT22;15510;52.512;13.300;2022-12-05T18:02:43;5.40;99.90
28244;DHT22;15510;52.512;13.300;2022-12-05T18:05:13;5.40;99.90
28244;DHT22;15510;52.512;13.300;2022-12-05T18:07:40;5.40;99.90
28244;DHT22;15510;52.512;13.300;2022-12-05T18:10:08;5.50;99.90
28244;DHT22;15510;52.512;13.300;2022-12-05T18:12:34;5.50;99.90
28244;DHT22;15510;52.512;13.300;2022-12-05T18:15:01;5.50;99.90
28244;DHT22;15510;52.512;13.300;2022-12-05T18:17:27;5.50;99.90
28244;DHT22;15510;52.512;13.300;2022-12-05T18:19:53;5.50;99.90
28244;DHT22;15510;52.512;13.300;2022-12-05T18:22:23;5.50;99.90
28244;DHT22;15510;52.512;13.300;2022-12-05T18:24:50;5.50;99.90
28244;DHT22;15510;52.512;13.300;2022-12-05T18:27:16;5.40;99.90
28244;DHT22;15510;52.512;13.300;2022-12-05T18:29:42;5.40;99.90
28244;DHT22;15510;52.512;13.300;2022-12-05T18:32:08;5.40;99.90
28244;DHT22;15510;52.512;13.300;2022-12-05T18:34:34;5.40;99.90
28244;DHT22;15510;52.512;13.300;2022-12-05T18:36:59;5.30;99.90
28244;DHT22;15510;52.512;13.300;2022-12-05T18:39:25;5.30;99.90
28244;DHT22;15510;52.512;13.300;2022-12-05T18:41:51;5.30;99.90
28244;DHT22;15510;52.512;13.300;2022-12-05T18:44:17;5.30;99.90
28244;DHT22;15510;52.512;13.300;2022-12-05T18:46:43;5.30;99.90
28244;DHT22;15510;52.512;13.300;2022-12-05T18:49:11;5.40;99.90
28244;DHT22;15510;52.512;13.300;2022-12-05T18:51:38;5.40;99.90
28244;DHT22;15510;52.512;13.300;2022-12-05T18:54:04;5.40;99.90
28244;DHT22;15510;52.512;13.300;2022-12-05T18:56:32;5.30;99.90
28244;DHT22;15510;52.512;13.300;2022-12-05T18:59:06;5.40;99.90
28244;DHT22;15510;52.512;13.300;2022-12-05T19:01:34;5.40;99.90
28244;DHT22;15510;52.512;13.300;2022-12-05T19:04:02;5.40;99.90
28244;DHT22;15510;52.512;13.300;2022-12-05T19:06:30;5.40;99.90
28244;DHT22;15510;52.512;13.300;2022-12-05T19:09:00;5.40;99.90
28244;DHT22;15510;52.512;13.300;2022-12-05T19:11:27;5.40;99.90
28244;DHT22;15510;52.512;13.300;2022-12-05T19:13:54;5.30;99.90
28244;DHT22;15510;52.512;13.300;2022-12-05T19:16:20;5.40;99.90
28244;DHT22;15510;52.512;13.300;2022-12-05T19:18:46;5.40;99.90
28244;DHT22;15510;52.512;13.300;2022-12-05T19:21:12;5.40;99.90
28244;DHT22;15510;52.512;13.300;2022-12-05T19:23:38;5.30;99.90
28244;DHT22;15510;52.512;13.300;2022-12-05T19:26:06;5.40;99.90
28244;DHT22;15510;52.512;13.300;2022-12-05T19:28:36;5.40;99.90
28244;DHT22;15510;52.512;13.300;2022-12-05T19:31:07;5.40;99.90
28244;DHT22;15510;52.512;13.300;2022-12-05T19:33:35;5.40;99.90
28244;DHT22;15510;52.512;13.300;2022-12-05T19:36:23;5.30;99.90
28244;DHT22;15510;52.512;13.300;2022-12-05T19:38:49;5.30;99.90
28244;DHT22;15510;52.512;13.300;2022-12-05T19:41:17;5.30;99.90
28244;DHT22;15510;52.512;13.300;2022-12-05T19:43:44;5.30;99.90
28244;DHT22;15510;52.512;13.300;2022-12-05T19:46:19;5.30;99.90
28244;DHT22;15510;52.512;13.300;2022-12-05T19:48:45;5.30;99.90
28244;DHT22;15510;52.512;13.300;2022-12-05T19:51:11;5.30;99.90
28244;DHT22;15510;52.512;13.300;2022-12-05T19:53:39;5.30;99.90
28244;DHT22;15510;52.512;13.300;2022-12-05T19:56:08;5.30;99.90
28244;DHT22;15510;52.512;13.300;2022-12-05T19:58:36;5.30;99.90
28244;DHT22;15510;52.512;13.300;2022-12-05T20:01:06;5.40;99.90
28244;DHT22;15510;52.512;13.300;2022-12-05T20:03:32;5.50;99.90
28244;DHT22;15510;52.512;13.300;2022-12-05T20:05:58;5.40;99.90
28244;DHT22;15510;52.512;13.300;2022-12-05T20:08:24;5.30;99.90
28244;DHT22;15510;52.512;13.300;2022-12-05T20:10:50;5.30;99.90
28244;DHT22;15510;52.512;13.300;2022-12-05T20:13:20;5.30;99.90
28244;DHT22;15510;52.512;13.300;2022-12-05T20:15:46;5.30;99.90
28244;DHT22;15510;52.512;13.300;2022-12-05T20:18:13;5.20;99.90
28244;DHT22;15510;52.512;13.300;2022-12-05T20:20:39;5.10;99.90
28244;DHT22;15510;52.512;13.300;2022-12-05T20:23:05;5.10;99.90
28244;DHT22;15510;52.512;13.300;2022-12-05T20:25:37;5.20;99.90
28244;DHT22;15510;52.512;13.300;2022-12-05T20:28:03;5.10;99.90
28244;DHT22;15510;52.512;13.300;2022-12-05T20:30:31;5.00;99.90
28244;DHT22;15510;52.512;13.300;2022-12-05T20:32:57;5.00;99.90
28244;DHT22;15510;52.512;13.300;2022-12-05T20:35:23;5.00;99.90
28244;DHT22;15510;52.512;13.300;2022-12-05T20:37:49;5.00;99.90
28244;DHT22;15510;52.512;13.300;2022-12-05T20:40:14;5.00;99.90
28244;DHT22;15510;52.512;13.300;2022-12-05T20:42:40;5.00;99.90
28244;DHT22;15510;52.512;13.300;2022-12-05T20:45:06;5.10;99.90
28244;DHT22;15510;52.512;13.300;2022-12-05T20:47:32;5.10;99.90
28244;DHT22;15510;52.512;13.300;2022-12-05T20:49:58;5.10;99.90
28244;DHT22;15510;52.512;13.300;2022-12-05T20:52:24;5.00;99.90
28244;DHT22;15510;52.512;13.300;2022-12-05T20:54:50;5.00;99.90
28244;DHT22;15510;52.512;13.300;2022-12-05T20:57:16;4.90;99.90
28244;DHT22;15510;52.512;13.300;2022-12-05T20:59:42;5.00;99.90
28244;DHT22;15510;52.512;13.300;2022-12-05T21:02:07;5.00;99.90
28244;DHT22;15510;52.512;13.300;2022-12-05T21:04:33;4.90;99.90
28244;DHT22;15510;52.512;13.300;2022-12-05T21:07:03;4.90;99.90